Time;durP1;ratioP1;P1;durP2;ratioP2;P2;SDS_P1;SDS_P2;PMS_P1;PMS_P2;Temp;Humidity;BMP_temperature;BMP_pressure;BME280_temperature;BME280_humidity;BME280_pressure;Samples;Min_cycle;Max_cycle;Signal;HPM_P1;HPM_P2
2021/04/17 00:02:16;;;;;;;6.55;3.47;;;;;;;1.33;91.58;96839.77;1742522;81;21187;-84
2021/04/17 00:04:43;;;;;;;10.25;6.37;;;;;;;1.32;91.89;96839.47;1759390;81;21080;-84
2021/04/17 00:07:13;;;;;;;7.95;5.28;;;;;;;1.32;91.80;96844.69;1742239;81;21187;-84
2021/04/17 00:09:41;;;;;;;8.43;5.25;;;;;;;1.32;91.93;96831.63;1759221;81;21135;-84
2021/04/17 00:12:16;;;;;;;8.70;5.50;;;;;;;1.33;91.79;96837.95;1758521;81;21487;-84
2021/04/17 00:14:47;;;;;;;7.78;5.05;;;;;;;1.34;91.81;96838.75;1744193;81;21073;-84
2021/04/17 00:17:16;;;;;;;8.35;4.47;;;;;;;1.32;91.93;96839.47;1744707;81;21487;-84
2021/04/17 00:19:47;;;;;;;8.80;5.47;;;;;;;1.30;92.11;96833.67;1760055;80;21135;-84
2021/04/17 00:22:15;;;;;;;7.10;4.35;;;;;;;1.30;92.20;96831.85;1755380;81;21140;-84
2021/04/17 00:24:42;;;;;;;9.55;5.67;;;;;;;1.30;92.23;96833.16;1741701;81;21177;-84
2021/04/17 00:27:10;;;;;;;7.12;4.95;;;;;;;1.29;92.01;96833.38;1743984;81;21853;-84
2021/04/17 00:29:39;;;;;;;7.78;5.17;;;;;;;1.29;92.19;96823.73;1753576;81;21148;-84
2021/04/17 00:32:09;;;;;;;8.73;5.58;;;;;;;1.29;92.13;96825.03;1763521;81;21173;-84
2021/04/17 00:34:37;;;;;;;11.60;6.53;;;;;;;1.30;92.13;96824.53;1759676;81;21444;-84
2021/04/17 00:37:04;;;;;;;8.43;5.22;;;;;;;1.29;92.15;96824.23;1754314;81;21181;-84
2021/04/17 00:39:31;;;;;;;8.20;5.75;;;;;;;1.30;92.11;96827.14;1755289;81;21149;-84
2021/04/17 00:41:58;;;;;;;6.75;4.75;;;;;;;1.28;92.21;96828.66;1741297;81;21161;-84
2021/04/17 00:44:25;;;;;;;9.28;5.50;;;;;;;1.28;92.21;96828.66;1748148;81;21513;-84
2021/04/17 00:46:52;;;;;;;8.95;4.85;;;;;;;1.29;92.11;96826.84;1758214;81;21134;-84
2021/04/17 00:49:19;;;;;;;8.85;5.33;;;;;;;1.31;92.27;96826.12;1752697;80;21176;-84
2021/04/17 00:51:46;;;;;;;10.08;5.62;;;;;;;1.28;92.25;96822.13;1751129;81;21177;-84
2021/04/17 00:54:14;;;;;;;6.28;4.20;;;;;;;1.31;92.06;96823.52;1742476;81;21133;-84
2021/04/17 00:56:40;;;;;;;8.15;4.85;;;;;;;1.32;92.25;96815.97;1748951;81;21154;-84
2021/04/17 00:59:08;;;;;;;9.48;5.30;;;;;;;1.31;92.12;96818.28;1754292;80;21143;-84
2021/04/17 01:01:35;;;;;;;7.53;4.37;;;;;;;1.28;92.39;96822.13;1745492;81;21487;-84
2021/04/17 01:04:34;;;;;;;7.80;5.03;;;;;;;1.22;92.23;96818.25;1760483;81;21617;-84
2021/04/17 01:07:28;;;;;;;5.50;4.05;;;;;;;1.28;92.20;96830.47;1745427;81;21163;-84
2021/04/17 01:10:15;;;;;;;6.62;4.45;;;;;;;1.28;92.34;96820.03;1743108;81;21189;-85
2021/04/17 01:12:46;;;;;;;6.17;3.95;;;;;;;1.28;92.67;96829.17;1743779;81;21159;-85
2021/04/17 01:15:16;;;;;;;6.85;4.92;;;;;;;1.27;92.54;96828.37;1753840;81;21097;-84
2021/04/17 01:17:48;;;;;;;8.13;4.15;;;;;;;1.25;92.51;96829.06;1748009;81;21216;-84
2021/04/17 01:20:47;;;;;;;5.78;4.28;;;;;;;1.23;92.57;96833.70;1737062;81;21126;-85
2021/04/17 01:23:40;;;;;;;4.08;2.77;;;;;;;1.21;92.50;96830.51;1743187;81;21142;-84
2021/04/17 01:26:18;;;;;;;5.65;3.85;;;;;;;1.21;92.62;96833.62;1757906;81;21468;-84
2021/04/17 01:28:56;;;;;;;8.55;4.08;;;;;;;1.19;92.70;96828.11;1749174;80;21139;-83
2021/04/17 01:31:30;;;;;;;6.50;3.42;;;;;;;1.15;92.77;96820.42;1749978;81;21550;-83
2021/04/17 01:34:01;;;;;;;5.87;3.72;;;;;;;1.14;92.78;96824.05;1748786;81;21617;-84
2021/04/17 01:36:31;;;;;;;6.70;3.70;;;;;;;1.12;92.76;96818.72;1751618;81;21479;-83
2021/04/17 01:39:09;;;;;;;4.70;3.65;;;;;;;1.04;92.92;96806.75;1750007;81;21159;-83
2021/04/17 01:41:47;;;;;;;6.47;3.55;;;;;;;1.09;92.95;96819.16;1730338;81;21106;-84
2021/04/17 01:44:28;;;;;;;7.47;3.92;;;;;;;1.08;93.19;96828.00;1747668;80;21137;-83
2021/04/17 01:47:05;;;;;;;8.10;4.10;;;;;;;1.07;93.11;96826.41;1760299;80;21516;-84
2021/04/17 01:49:36;;;;;;;5.65;3.60;;;;;;;1.05;93.02;96831.84;1743686;81;21140;-84
2021/04/17 01:52:06;;;;;;;5.35;2.98;;;;;;;1.05;93.14;96830.53;1755943;80;21134;-84
2021/04/17 01:54:43;;;;;;;5.45;3.60;;;;;;;1.06;93.40;96829.52;1740265;81;21129;-84
2021/04/17 01:57:13;;;;;;;5.20;2.62;;;;;;;1.06;93.40;96829.52;1715693;83;21124;-84
2021/04/17 01:59:41;;;;;;;3.80;2.40;;;;;;;1.07;93.62;96826.41;1725608;81;21184;-84
2021/04/17 02:02:08;;;;;;;2.98;2.33;;;;;;;1.08;93.74;96834.02;1684642;84;21191;-84
2021/04/17 02:04:36;;;;;;;3.15;2.20;;;;;;;0.97;93.81;96811.20;1725698;83;21124;-84
2021/04/17 02:07:04;;;;;;;5.28;3.17;;;;;;;1.03;93.96;96835.17;1721686;82;21143;-84
2021/04/17 02:09:32;;;;;;;5.55;3.42;;;;;;;1.03;93.96;96835.17;1721402;81;21511;-84
2021/04/17 02:11:59;;;;;;;5.65;3.37;;;;;;;1.01;94.07;96833.28;1732450;82;21157;-84
2021/04/17 02:14:26;;;;;;;6.80;4.00;;;;;;;1.02;94.15;96821.03;1726811;82;21242;-84
2021/04/17 02:17:10;;;;;;;3.95;2.50;;;;;;;0.99;94.10;96830.09;1726786;83;21120;-84
2021/04/17 02:19:51;;;;;;;4.40;3.00;;;;;;;0.86;94.12;96811.91;1718665;81;21162;-84
2021/04/17 02:22:20;;;;;;;3.58;3.05;;;;;;;0.97;94.14;96825.56;1712488;83;21187;-84
2021/04/17 02:24:48;;;;;;;3.65;2.50;;;;;;;0.99;94.20;96823.56;1705755;83;21139;-84
2021/04/17 02:27:15;;;;;;;3.10;1.90;;;;;;;1.01;94.21;96826.76;1682379;83;21170;-84
2021/04/17 02:29:42;;;;;;;4.92;2.52;;;;;;;1.04;94.37;96824.22;1697956;83;21146;-84
2021/04/17 02:32:16;;;;;;;3.60;1.72;;;;;;;1.03;94.38;96809.06;1692260;84;21130;-85
2021/04/17 02:34:44;;;;;;;4.30;2.35;;;;;;;1.04;94.23;96817.19;1684537;84;21535;-84
2021/04/17 02:37:12;;;;;;;3.83;2.00;;;;;;;0.93;94.42;96791.77;1695210;84;21509;-84
2021/04/17 02:39:41;;;;;;;6.15;3.10;;;;;;;0.93;94.42;96791.77;1700458;83;21114;-84
2021/04/17 02:42:09;;;;;;;5.10;3.20;;;;;;;1.04;94.30;96818.50;1692842;84;21098;-84
2021/04/17 02:44:38;;;;;;;5.90;3.30;;;;;;;1.05;94.20;96820.09;1683173;84;21155;-84
2021/04/17 02:47:05;;;;;;;4.37;3.40;;;;;;;1.04;94.17;96818.50;1702693;84;21138;-84
2021/04/17 02:49:33;;;;;;;4.45;2.98;;;;;;;0.95;94.10;96805.41;1702633;83;21159;-84
2021/04/17 02:52:01;;;;;;;4.33;2.65;;;;;;;0.95;94.10;96805.41;1701547;84;21210;-84
2021/04/17 02:54:28;;;;;;;5.37;2.67;;;;;;;1.07;94.21;96818.06;1686955;84;21122;-84
2021/04/17 02:56:55;;;;;;;4.75;3.15;;;;;;;1.06;94.28;96815.16;1692146;84;21522;-84
2021/04/17 02:59:22;;;;;;;7.22;3.60;;;;;;;1.07;94.25;96825.09;1694267;84;21131;-84
2021/04/17 03:01:49;;;;;;;3.72;2.50;;;;;;;1.05;94.20;96821.40;1692280;84;21533;-84
2021/04/17 03:04:16;;;;;;;4.70;2.58;;;;;;;1.04;94.34;96828.94;1688799;84;21528;-84
2021/04/17 03:06:43;;;;;;;5.35;3.08;;;;;;;1.04;94.34;96828.94;1760199;80;21172;-84
2021/04/17 03:09:11;;;;;;;3.42;2.10;;;;;;;1.05;94.23;96826.62;1759365;80;22109;-84
2021/04/17 03:11:38;;;;;;;5.60;3.80;;;;;;;1.06;94.33;96826.91;1763510;81;21143;-84
2021/04/17 03:14:05;;;;;;;3.00;1.92;;;;;;;1.08;94.32;96827.49;1702434;83;21193;-84
2021/04/17 03:16:32;;;;;;;4.83;3.35;;;;;;;1.09;94.45;96826.48;1724980;82;21158;-84
2021/04/17 03:18:59;;;;;;;3.52;2.67;;;;;;;1.10;94.17;96827.28;1672576;84;21185;-84
2021/04/17 03:21:28;;;;;;;5.10;3.55;;;;;;;1.10;94.02;96831.99;1730266;82;21131;-84
2021/04/17 03:23:55;;;;;;;5.50;3.87;;;;;;;1.09;93.89;96827.78;1680996;83;21169;-84
2021/04/17 03:26:22;;;;;;;5.70;3.60;;;;;;;1.05;93.80;96831.84;1684745;83;21140;-84
2021/04/17 03:28:49;;;;;;;5.35;3.70;;;;;;;0.99;93.80;96837.92;1693639;84;21198;-84
2021/04/17 03:31:16;;;;;;;7.35;4.12;;;;;;;0.97;93.76;96837.31;1689251;83;21162;-84
2021/04/17 03:33:43;;;;;;;5.45;3.62;;;;;;;0.86;93.66;96814.02;1703670;84;21138;-84
2021/04/17 03:36:10;;;;;;;6.05;3.70;;;;;;;0.98;93.74;96838.91;1682930;84;21151;-84
2021/04/17 03:38:37;;;;;;;5.95;3.83;;;;;;;0.94;93.69;96835.12;1687576;84;21161;-84
2021/04/17 03:41:05;;;;;;;6.12;3.77;;;;;;;0.92;93.79;96831.94;1691760;84;21202;-84
2021/04/17 03:43:32;;;;;;;4.25;3.27;;;;;;;0.91;93.81;96832.95;1693554;84;21147;-84
2021/04/17 03:45:58;;;;;;;5.55;3.47;;;;;;;0.91;93.81;96838.16;1705752;84;21150;-84
2021/04/17 03:48:25;;;;;;;5.37;3.52;;;;;;;0.93;93.82;96841.36;1690947;84;21165;-84
2021/04/17 03:50:52;;;;;;;7.40;3.90;;;;;;;0.95;93.79;96839.84;1704959;83;21495;-84
2021/04/17 03:53:20;;;;;;;4.20;3.00;;;;;;;0.84;93.69;96820.43;1694473;84;21534;-84
2021/04/17 03:55:47;;;;;;;6.75;3.90;;;;;;;0.94;93.74;96840.34;1694041;84;21505;-84
2021/04/17 03:58:15;;;;;;;6.03;3.50;;;;;;;0.88;93.90;96835.48;1699678;84;21494;-84
2021/04/17 04:00:41;;;;;;;6.12;3.87;;;;;;;0.88;93.90;96835.48;1700635;83;21577;-84
2021/04/17 04:03:08;;;;;;;7.50;3.47;;;;;;;0.86;93.86;96849.75;1693363;84;21507;-84
2021/04/17 04:05:36;;;;;;;5.58;3.55;;;;;;;0.86;93.90;96841.41;1709788;84;21111;-84
2021/04/17 04:08:03;;;;;;;6.78;4.05;;;;;;;0.88;93.92;96843.81;1707308;84;21566;-84
2021/04/17 04:10:30;;;;;;;4.70;3.83;;;;;;;0.86;94.00;96834.89;1753201;81;21192;-84
2021/04/17 04:12:57;;;;;;;4.12;3.05;;;;;;;0.76;94.14;96820.20;1758470;81;21096;-84
2021/04/17 04:15:24;;;;;;;6.55;4.95;;;;;;;0.86;94.19;96835.40;1749085;81;21507;-84
2021/04/17 04:17:51;;;;;;;8.45;5.03;;;;;;;0.84;94.38;96845.22;1755301;81;21095;-84
2021/04/17 04:20:18;;;;;;;6.50;4.70;;;;;;;0.82;94.42;96846.74;1761898;81;21521;-84
2021/04/17 04:22:45;;;;;;;7.53;4.28;;;;;;;0.84;94.51;96842.61;1757204;81;21115;-84
2021/04/17 04:25:12;;;;;;;8.20;4.78;;;;;;;0.88;94.76;96842.00;1761365;81;21177;-84
2021/04/17 04:27:40;;;;;;;8.23;6.28;;;;;;;0.88;94.76;96842.00;1763159;81;21087;-84
2021/04/17 04:30:11;;;;;;;7.55;6.47;;;;;;;0.92;94.82;96841.58;1756120;81;21099;-84
2021/04/17 04:32:39;;;;;;;8.98;5.28;;;;;;;0.96;94.84;96842.23;1762266;81;21158;-84
2021/04/17 04:35:08;;;;;;;5.62;4.62;;;;;;;1.02;94.87;96847.13;1763174;81;21099;-84
2021/04/17 04:37:35;;;;;;;9.38;7.20;;;;;;;1.06;94.90;96849.09;1763205;81;21159;-84
2021/04/17 04:40:04;;;;;;;11.08;7.72;;;;;;;1.14;94.91;96846.24;1748093;81;21518;-84
2021/04/17 04:42:32;;;;;;;11.00;7.70;;;;;;;1.14;94.91;96846.24;1751350;81;21506;-84
2021/04/17 04:45:00;;;;;;;5.28;3.50;;;;;;;1.17;94.86;96864.09;1758955;81;21503;-84
2021/04/17 04:47:27;;;;;;;5.58;4.22;;;;;;;1.23;94.77;96851.98;1758747;81;21130;-84
2021/04/17 04:49:55;;;;;;;5.62;4.20;;;;;;;1.27;94.75;96856.27;1754428;81;21127;-84
2021/04/17 04:52:23;;;;;;;7.25;5.22;;;;;;;1.29;94.59;96856.38;1762383;81;21174;-84
2021/04/17 04:54:50;;;;;;;6.95;4.08;;;;;;;1.32;94.48;96853.84;1759122;81;21158;-84
2021/04/17 04:57:17;;;;;;;5.62;3.50;;;;;;;1.34;94.49;96854.42;1759607;80;21169;-84
2021/04/17 04:59:44;;;;;;;3.35;2.70;;;;;;;1.38;94.45;96859.50;1750562;81;21553;-84
2021/04/17 05:02:11;;;;;;;3.42;2.20;;;;;;;1.42;94.42;96854.16;1699634;82;21210;-84
2021/04/17 05:04:38;;;;;;;3.92;2.47;;;;;;;1.47;94.35;96855.11;1699948;84;21525;-84
2021/04/17 05:07:05;;;;;;;2.83;2.30;;;;;;;1.53;94.18;96851.33;1710434;84;21146;-84
2021/04/17 05:09:32;;;;;;;5.08;2.35;;;;;;;1.57;94.13;96853.33;1702454;84;21220;-84
2021/04/17 05:11:59;;;;;;;3.80;2.30;;;;;;;1.63;93.89;96856.88;1704260;84;21514;-84
2021/04/17 05:14:26;;;;;;;4.62;3.20;;;;;;;1.65;93.85;96850.42;1708001;84;21103;-84
2021/04/17 05:16:53;;;;;;;5.45;2.83;;;;;;;1.69;93.72;96853.39;1689523;84;21161;-84
2021/04/17 05:19:20;;;;;;;2.45;1.85;;;;;;;1.74;93.52;96850.95;1710970;83;21218;-84
2021/04/17 05:21:47;;;;;;;2.85;2.58;;;;;;;1.79;93.40;96849.78;1703017;84;21131;-84
2021/04/17 05:24:14;;;;;;;3.60;2.52;;;;;;;1.85;93.24;96843.70;1713400;84;21201;-84
2021/04/17 05:26:41;;;;;;;4.92;3.72;;;;;;;1.85;93.00;96852.86;1708847;84;21540;-84
2021/04/17 05:29:09;;;;;;;4.42;2.85;;;;;;;1.89;93.06;96855.83;1706676;83;21407;-84
2021/04/17 05:31:36;;;;;;;6.42;3.60;;;;;;;1.93;92.90;96856.98;1689566;84;21129;-84
2021/04/17 05:34:06;;;;;;;5.35;3.02;;;;;;;1.99;92.90;96857.44;1693818;84;21134;-84
2021/04/17 05:36:35;;;;;;;4.03;3.00;;;;;;;2.06;92.91;96860.26;1701206;84;21111;-84
2021/04/17 05:39:05;;;;;;;4.83;3.25;;;;;;;2.09;92.77;96861.63;1698808;83;21591;-84
2021/04/17 05:41:32;;;;;;;5.45;3.00;;;;;;;2.16;92.74;96849.30;1709404;84;21145;-84
2021/04/17 05:44:10;;;;;;;4.85;2.87;;;;;;;2.22;92.52;96856.26;1701133;84;21127;-84
2021/04/17 05:46:29;;;;;;;4.10;2.87;;;;;;;2.30;92.40;96854.67;1709764;84;21150;-84
2021/04/17 05:48:56;;;;;;;5.55;3.30;;;;;;;2.35;92.12;96857.41;1710503;83;22312;-84
2021/04/17 05:51:23;;;;;;;5.35;3.15;;;;;;;2.35;91.93;96856.11;1702761;84;21204;-84
2021/04/17 05:53:50;;;;;;;3.17;2.55;;;;;;;2.43;92.05;96852.91;1706713;84;21154;-84
2021/04/17 05:56:17;;;;;;;5.42;3.30;;;;;;;2.52;91.67;96852.88;1707499;84;21133;-84
2021/04/17 05:58:44;;;;;;;6.12;3.72;;;;;;;2.56;91.59;96854.86;1712542;83;21139;-84
2021/04/17 06:01:11;;;;;;;5.50;4.17;;;;;;;2.66;91.50;96856.92;1697621;83;21159;-84
2021/04/17 06:03:37;;;;;;;7.35;4.60;;;;;;;2.68;91.16;96858.84;1706233;84;21158;-84
2021/04/17 06:06:04;;;;;;;6.37;4.55;;;;;;;2.64;90.84;96856.35;1687686;84;21648;-84
2021/04/17 06:08:32;;;;;;;4.33;3.20;;;;;;;2.68;90.78;96864.08;1728224;83;21136;-84
2021/04/17 06:10:59;;;;;;;5.62;3.65;;;;;;;2.63;90.25;96858.69;1730478;83;21147;-84
2021/04/17 06:13:26;;;;;;;4.75;3.35;;;;;;;2.49;89.99;96859.36;1736110;83;21578;-84
2021/04/17 06:15:54;;;;;;;6.42;3.77;;;;;;;2.49;90.18;96854.64;1728994;83;21470;-84
2021/04/17 06:18:21;;;;;;;6.47;3.85;;;;;;;2.53;90.14;96859.71;1737334;83;21454;-84
2021/04/17 06:20:48;;;;;;;4.42;2.95;;;;;;;2.58;90.13;96852.02;1710054;82;21521;-84
2021/04/17 06:23:15;;;;;;;5.28;3.75;;;;;;;2.61;89.73;96846.33;1682729;84;21561;-84
2021/04/17 06:25:42;;;;;;;5.22;3.22;;;;;;;2.67;89.96;96855.42;1691520;84;21183;-84
2021/04/17 06:28:12;;;;;;;4.28;3.12;;;;;;;2.84;89.99;96854.80;1694392;84;21157;-84
2021/04/17 06:30:39;;;;;;;5.58;2.92;;;;;;;3.22;89.79;96853.91;1679931;85;21548;-84
2021/04/17 06:33:08;;;;;;;4.25;2.92;;;;;;;3.33;88.90;96854.95;1680475;85;21522;-84
2021/04/17 06:35:37;;;;;;;5.50;2.85;;;;;;;3.38;88.28;96853.78;1689829;84;21481;-84
2021/04/17 06:38:04;;;;;;;6.85;3.40;;;;;;;3.29;87.81;96851.20;1685493;84;21183;-84
2021/04/17 06:40:31;;;;;;;6.15;3.60;;;;;;;3.15;87.59;96854.53;1671954;85;21184;-84
2021/04/17 06:43:02;;;;;;;6.30;3.50;;;;;;;3.02;87.52;96861.79;1674595;85;21221;-84
2021/04/17 06:45:33;;;;;;;5.60;2.80;;;;;;;2.87;87.49;96859.06;1680669;85;21140;-84
2021/04/17 06:48:06;;;;;;;5.62;3.60;;;;;;;2.71;87.56;96855.77;1675200;84;21592;-84
2021/04/17 06:50:36;;;;;;;8.63;4.17;;;;;;;2.61;87.78;96862.03;1690009;84;21139;-84
2021/04/17 06:53:07;;;;;;;5.78;3.65;;;;;;;2.51;88.03;96858.63;1689248;84;21173;-84
2021/04/17 06:55:36;;;;;;;6.90;3.72;;;;;;;2.51;88.15;96856.02;1680549;85;21504;-84
2021/04/17 06:58:04;;;;;;;7.12;4.00;;;;;;;2.52;88.24;96857.61;1680571;85;21120;-84
2021/04/17 07:00:32;;;;;;;6.08;3.65;;;;;;;2.54;88.08;96859.52;1679492;85;21187;-84
2021/04/17 07:02:59;;;;;;;7.83;4.70;;;;;;;2.52;88.11;96857.61;1680536;85;21196;-84
2021/04/17 07:05:26;;;;;;;6.45;4.17;;;;;;;2.57;88.25;96862.20;1690100;84;21628;-84
2021/04/17 07:07:53;;;;;;;6.37;4.22;;;;;;;2.60;88.37;96857.31;1671664;84;21124;-84
2021/04/17 07:10:20;;;;;;;5.67;4.33;;;;;;;2.66;88.50;96860.85;1697006;83;21174;-84
2021/04/17 07:12:47;;;;;;;7.03;4.35;;;;;;;2.72;88.33;96865.22;1699652;84;21130;-84
2021/04/17 07:15:15;;;;;;;8.58;4.87;;;;;;;2.78;88.42;96855.67;1684562;84;21180;-84
2021/04/17 07:17:42;;;;;;;6.22;4.28;;;;;;;2.81;88.20;96870.41;1705107;84;21154;-84
2021/04/17 07:20:13;;;;;;;7.28;4.45;;;;;;;2.78;87.92;96856.98;1695039;83;21151;-84
2021/04/17 07:22:43;;;;;;;5.95;4.25;;;;;;;2.76;87.83;96863.75;1693924;84;21159;-84
2021/04/17 07:25:15;;;;;;;7.35;4.75;;;;;;;2.78;87.87;96869.55;1691618;84;21208;-84
2021/04/17 07:27:48;;;;;;;6.20;4.30;;;;;;;2.81;87.86;96867.00;1687610;84;21131;-84
2021/04/17 07:30:23;;;;;;;7.25;4.35;;;;;;;2.84;87.87;96863.45;1686346;84;21199;-84
2021/04/17 07:33:11;;;;;;;7.45;5.00;;;;;;;2.83;87.61;96867.60;1699428;84;21471;-84
2021/04/17 07:35:45;;;;;;;8.75;4.97;;;;;;;2.78;87.55;96870.06;1705900;84;21123;-84
2021/04/17 07:38:34;;;;;;;7.08;4.10;;;;;;;2.77;87.48;96869.27;1703888;84;21189;-84
2021/04/17 07:41:17;;;;;;;6.97;4.45;;;;;;;2.70;87.54;96876.42;1700310;83;21185;-84
2021/04/17 07:43:58;;;;;;;6.85;4.45;;;;;;;2.71;87.75;96883.25;1693603;84;21542;-84
2021/04/17 07:46:31;;;;;;;;;;;;;;;2.70;87.77;96876.42;1695678;84;21153;-84
2021/04/17 07:49:21;;;;;;;7.75;4.05;;;;;;;2.67;87.58;96872.91;1691018;83;20154;-84
2021/04/17 07:51:57;;;;;;;;;;;;;;;2.62;87.34;96878.03;1693662;84;21136;-84
2021/04/17 07:54:24;;;;;;;6.58;3.83;;;;;;;2.60;87.47;96881.38;1694532;84;20196;-84
2021/04/17 07:56:52;;;;;;;7.03;4.30;;;;;;;2.60;87.67;96878.77;1694418;84;21155;-84
2021/04/17 07:59:25;;;;;;;6.95;4.25;;;;;;;2.62;87.72;96881.44;1701571;83;21158;-84
2021/04/17 08:01:53;;;;;;;5.15;3.65;;;;;;;2.67;87.88;96881.59;1687706;83;21169;-84
2021/04/17 08:04:29;;;;;;;6.75;4.35;;;;;;;2.70;87.65;96875.63;1689693;84;21574;-84
2021/04/17 08:07:00;;;;;;;6.85;4.60;;;;;;;2.73;87.57;96882.52;1691532;85;21559;-84
2021/04/17 08:09:28;;;;;;;7.12;4.08;;;;;;;2.83;87.92;96878.88;1686702;85;21108;-84
2021/04/17 08:12:00;;;;;;;6.80;4.25;;;;;;;2.96;87.79;96879.20;1739869;82;21136;-84
2021/04/17 08:14:30;;;;;;;7.05;4.37;;;;;;;3.02;87.54;96882.22;1739804;82;21088;-84
2021/04/17 08:16:57;;;;;;;3.50;2.65;;;;;;;3.12;87.69;96881.18;1704857;84;21204;-84
2021/04/17 08:19:25;;;;;;;8.28;4.95;;;;;;;3.22;87.59;96880.10;1703782;83;21249;-84
2021/04/17 08:21:53;;;;;;;6.55;4.17;;;;;;;3.31;87.58;96877.97;1700535;84;21135;-84
2021/04/17 08:24:28;;;;;;;6.78;4.20;;;;;;;3.44;87.43;96886.94;1700998;84;21164;-84
2021/04/17 08:26:58;;;;;;;8.70;4.47;;;;;;;3.47;86.98;96889.09;1694100;84;21127;-84
2021/04/17 08:29:47;;;;;;;;;;;;;;;3.58;87.09;96888.32;1696864;83;21191;-84
2021/04/17 08:32:41;;;;;;;7.55;4.70;;;;;;;3.63;86.81;96882.91;1704541;84;20360;-84
2021/04/17 08:35:19;;;;;;;6.08;3.85;;;;;;;3.64;86.24;96881.36;1699531;84;21145;-84
2021/04/17 08:37:57;;;;;;;7.20;5.05;;;;;;;3.71;86.21;96893.06;1687376;84;21194;-84
2021/04/17 08:40:43;;;;;;;7.30;5.25;;;;;;;3.69;86.05;96892.50;1685474;83;21147;-84
2021/04/17 08:43:22;;;;;;;8.00;5.20;;;;;;;3.73;86.00;96889.70;1700463;84;21498;-84
2021/04/17 08:46:12;;;;;;;8.65;5.15;;;;;;;3.65;85.52;96890.82;1705006;84;21153;-83
2021/04/17 08:49:00;;;;;;;8.07;4.67;;;;;;;3.61;85.48;96895.45;1703612;83;21163;-83
2021/04/17 08:51:32;;;;;;;8.35;5.75;;;;;;;3.60;85.66;96890.72;1689223;84;21116;-83
2021/04/17 08:54:11;;;;;;;10.15;5.87;;;;;;;3.59;85.66;96898.30;1704841;84;21184;-84
2021/04/17 08:56:52;;;;;;;8.55;5.67;;;;;;;3.56;85.60;96898.75;1704517;84;21130;-84
2021/04/17 08:59:35;;;;;;;7.55;5.40;;;;;;;3.55;85.62;96898.47;1703669;84;21510;-84
2021/04/17 09:02:13;;;;;;;10.80;6.53;;;;;;;3.55;85.56;96896.64;1688551;83;21576;-84
2021/04/17 09:05:12;;;;;;;9.48;6.35;;;;;;;3.60;85.65;96895.16;1702939;84;21517;-84
2021/04/17 09:07:44;;;;;;;10.65;6.53;;;;;;;3.63;85.50;96894.70;1704794;84;21124;-84
2021/04/17 09:10:34;;;;;;;11.03;7.37;;;;;;;3.64;85.38;96897.61;1699931;83;21179;-84
2021/04/17 09:13:18;;;;;;;10.25;5.80;;;;;;;3.72;85.68;96895.45;1694102;84;21130;-83
2021/04/17 09:15:57;;;;;;;7.87;5.00;;;;;;;3.78;85.46;96889.80;1691620;84;21103;-83
2021/04/17 09:18:39;;;;;;;7.65;5.05;;;;;;;3.76;84.97;96897.91;1706775;84;21171;-83
2021/04/17 09:21:12;;;;;;;6.67;4.40;;;;;;;3.66;84.62;96889.83;1702279;84;21119;-83
2021/04/17 09:23:44;;;;;;;8.83;5.90;;;;;;;3.62;84.71;96893.11;1696585;84;21139;-83
2021/04/17 09:26:35;;;;;;;11.00;6.28;;;;;;;3.48;84.35;96892.00;1701630;84;21237;-83
2021/04/17 09:29:08;;;;;;;9.73;5.83;;;;;;;3.47;84.78;96887.79;1708612;83;21205;-83
2021/04/17 09:31:39;;;;;;;9.65;5.55;;;;;;;3.64;85.31;96890.53;1705078;84;21199;-83
2021/04/17 09:34:15;;;;;;;10.10;6.00;;;;;;;3.75;85.19;96894.20;1707936;84;21524;-83
2021/04/17 09:36:45;;;;;;;8.53;5.45;;;;;;;3.88;85.21;96887.42;1701152;84;21587;-83
2021/04/17 09:39:31;;;;;;;10.60;6.40;;;;;;;4.00;84.98;96888.73;1695535;83;21195;-83
2021/04/17 09:42:04;;;;;;;10.58;6.20;;;;;;;4.06;84.68;96883.35;1681988;83;22291;-84
2021/04/17 09:44:49;;;;;;;8.03;5.95;;;;;;;4.14;84.53;96888.27;1705836;84;21146;-84
2021/04/17 09:47:18;;;;;;;10.50;5.97;;;;;;;4.33;84.64;96881.03;1702315;84;21105;-84
2021/04/17 09:49:49;;;;;;;7.62;5.40;;;;;;;4.46;84.12;96888.66;1705045;83;21505;-84
2021/04/17 09:52:19;;;;;;;7.53;5.28;;;;;;;4.55;84.03;96890.41;1704365;84;21183;-84
2021/04/17 09:54:50;;;;;;;10.25;5.53;;;;;;;4.67;83.77;96890.38;1709059;84;21139;-84
2021/04/17 09:57:17;;;;;;;7.03;5.35;;;;;;;4.72;83.43;96883.91;1707574;84;21194;-84
2021/04/17 09:59:57;;;;;;;10.10;6.00;;;;;;;4.76;83.21;96884.50;1697897;83;21506;-84
2021/04/17 10:02:40;;;;;;;8.40;4.87;;;;;;;4.89;83.29;96886.58;1690628;83;21104;-84
2021/04/17 10:05:09;;;;;;;9.15;5.40;;;;;;;4.98;82.94;96884.66;1695816;84;21518;-84
2021/04/17 10:07:50;;;;;;;7.05;4.85;;;;;;;4.93;82.17;96879.84;1689906;84;21498;-84
2021/04/17 10:10:18;;;;;;;7.72;5.05;;;;;;;4.93;82.23;96882.47;1694012;83;21158;-84
2021/04/17 10:12:56;;;;;;;7.40;4.90;;;;;;;5.08;82.65;96880.11;1698461;84;21163;-85
2021/04/17 10:15:30;;;;;;;7.40;4.67;;;;;;;5.12;82.08;96879.91;1708032;84;21328;-85
2021/04/17 10:18:01;;;;;;;6.85;5.08;;;;;;;5.17;81.70;96873.42;1695673;84;21191;-84
2021/04/17 10:20:29;;;;;;;7.00;5.05;;;;;;;5.04;81.39;96876.34;1706996;83;21141;-85
2021/04/17 10:23:01;;;;;;;7.97;4.35;;;;;;;5.08;81.35;96874.86;1707903;84;21122;-85
2021/04/17 10:25:44;;;;;;;8.23;5.17;;;;;;;5.17;81.61;96876.56;1694576;84;21198;-85
2021/04/17 10:28:25;;;;;;;6.75;4.70;;;;;;;5.32;81.74;96878.13;1697383;84;21551;-85
2021/04/17 10:30:57;;;;;;;6.42;4.70;;;;;;;5.42;81.13;96873.56;1696115;83;21146;-84
2021/04/17 10:33:27;;;;;;;7.92;5.15;;;;;;;5.52;81.06;96869.28;1694288;84;21479;-84
2021/04/17 10:36:02;;;;;;;6.30;4.35;;;;;;;5.53;80.61;96877.44;1700546;84;21249;-84
2021/04/17 10:38:35;;;;;;;7.05;4.58;;;;;;;5.48;79.74;96870.77;1696392;84;21144;-84
2021/04/17 10:41:05;;;;;;;8.93;5.10;;;;;;;5.28;79.44;96877.02;1698715;83;21149;-85
2021/04/17 10:43:33;;;;;;;7.30;4.58;;;;;;;5.28;79.88;96875.70;1697110;84;21127;-85
2021/04/17 10:46:04;;;;;;;7.75;4.58;;;;;;;5.30;79.65;96877.58;1716667;82;21160;-85
2021/04/17 10:48:47;;;;;;;7.75;4.90;;;;;;;5.24;79.23;96883.28;1689487;84;21088;-85
2021/04/17 10:51:18;;;;;;;7.72;5.20;;;;;;;5.28;79.26;96873.08;1698111;83;21157;-84
2021/04/17 10:53:49;;;;;;;7.45;4.80;;;;;;;5.16;78.60;96874.97;1683480;84;21680;-84
2021/04/17 10:56:20;;;;;;;7.83;5.33;;;;;;;5.23;79.40;96876.43;1703281;84;21540;-84
2021/04/17 10:59:02;;;;;;;7.55;5.00;;;;;;;5.37;79.74;96875.61;1705433;84;21593;-84
2021/04/17 11:01:36;;;;;;;8.08;4.83;;;;;;;5.53;79.68;96875.33;1712005;83;21155;-85
2021/04/17 11:04:04;;;;;;;14.75;7.55;;;;;;;5.55;79.35;96878.52;1707757;84;21144;-85
2021/04/17 11:06:36;;;;;;;38.05;24.40;;;;;;;5.51;78.67;96870.31;1689330;84;21193;-84
2021/04/17 11:09:12;;;;;;;29.15;14.13;;;;;;;5.46;78.61;96872.05;1695098;83;21170;-85
2021/04/17 11:12:01;;;;;;;26.30;14.80;;;;;;;5.39;78.56;96865.64;1729059;82;21108;-85
2021/04/17 11:14:31;;;;;;;11.00;7.05;;;;;;;5.48;78.74;96873.91;1744386;81;21479;-85
2021/04/17 11:16:58;;;;;;;11.08;7.33;;;;;;;5.49;78.59;96868.45;1740104;82;21149;-84
2021/04/17 11:19:32;;;;;;;8.00;5.75;;;;;;;5.55;78.64;96868.00;1738279;82;21159;-85
2021/04/17 11:22:20;;;;;;;7.70;4.97;;;;;;;5.56;78.48;96867.75;1704608;84;21138;-85
2021/04/17 11:25:03;;;;;;;9.35;5.35;;;;;;;5.44;77.47;96871.50;1685110;84;21136;-84
2021/04/17 11:27:32;;;;;;;6.55;4.40;;;;;;;5.23;77.31;96866.44;1695784;84;21116;-85
2021/04/17 11:30:02;;;;;;;7.75;4.30;;;;;;;5.13;77.22;96862.31;1704115;83;21249;-84
2021/04/17 11:32:29;;;;;;;7.72;4.55;;;;;;;5.04;77.30;96870.56;1708246;83;21114;-85
2021/04/17 11:34:56;;;;;;;7.60;4.50;;;;;;;5.09;77.79;96868.56;1702935;83;21175;-85
2021/04/17 11:37:29;;;;;;;6.72;3.95;;;;;;;5.17;77.89;96877.36;1701533;84;21491;-84
2021/04/17 11:39:53;;;;;;;6.12;4.25;;;;;;;5.23;77.50;96879.06;1691376;83;21228;-85
2021/04/17 11:42:20;;;;;;;8.10;5.10;;;;;;;5.27;77.52;96877.54;1704738;84;21558;-85
2021/04/17 11:44:48;;;;;;;6.47;4.45;;;;;;;5.38;77.91;96879.03;1698855;84;21168;-85
2021/04/17 11:47:15;;;;;;;7.70;5.03;;;;;;;5.48;77.45;96880.48;1698623;84;21488;-85
2021/04/17 11:49:43;;;;;;;7.15;5.35;;;;;;;5.51;77.34;96880.83;1699756;83;21165;-85
2021/04/17 11:52:10;;;;;;;7.72;4.47;;;;;;;5.64;77.63;96875.25;1687050;84;21179;-84
2021/04/17 11:54:38;;;;;;;6.20;4.05;;;;;;;5.83;77.70;96882.89;1699833;84;21172;-84
2021/04/17 11:57:06;;;;;;;7.28;5.20;;;;;;;5.78;76.37;96878.88;1699448;84;21164;-85
2021/04/17 11:59:34;;;;;;;6.58;4.37;;;;;;;5.67;76.74;96876.60;1703141;83;21510;-85
2021/04/17 12:02:01;;;;;;;11.88;7.10;;;;;;;5.82;77.49;96881.30;1695443;83;21599;-85